sensor_id;sensor_type;location;lat;lon;timestamp;P1;durP1;ratioP1;P2;durP2;ratioP2
11731;SDS011;5922;53.734;10.258;2022-10-23T00:01:09;11.50;;;7.93;;
11731;SDS011;5922;53.734;10.258;2022-10-23T00:03:37;12.83;;;7.90;;
11731;SDS011;5922;53.734;10.258;2022-10-23T00:06:05;15.13;;;8.20;;
11731;SDS011;5922;53.734;10.258;2022-10-23T00:08:33;10.53;;;7.83;;
11731;SDS011;5922;53.734;10.258;2022-10-23T00:11:04;9.27;;;7.73;;
11731;SDS011;5922;53.734;10.258;2022-10-23T00:13:31;12.10;;;8.33;;
11731;SDS011;5922;53.734;10.258;2022-10-23T00:15:58;13.27;;;8.10;;
11731;SDS011;5922;53.734;10.258;2022-10-23T00:18:25;14.57;;;8.17;;
11731;SDS011;5922;53.734;10.258;2022-10-23T00:20:53;14.37;;;8.57;;
11731;SDS011;5922;53.734;10.258;2022-10-23T00:23:21;13.00;;;8.43;;
11731;SDS011;5922;53.734;10.258;2022-10-23T00:25:49;10.47;;;7.77;;
11731;SDS011;5922;53.734;10.258;2022-10-23T00:28:16;9.63;;;7.03;;
11731;SDS011;5922;53.734;10.258;2022-10-23T00:30:43;12.77;;;8.17;;
11731;SDS011;5922;53.734;10.258;2022-10-23T00:33:10;13.10;;;8.30;;
11731;SDS011;5922;53.734;10.258;2022-10-23T00:35:38;11.23;;;7.97;;
11731;SDS011;5922;53.734;10.258;2022-10-23T00:38:05;11.13;;;7.80;;
11731;SDS011;5922;53.734;10.258;2022-10-23T00:40:34;11.87;;;8.20;;
11731;SDS011;5922;53.734;10.258;2022-10-23T00:43:01;12.97;;;8.33;;
11731;SDS011;5922;53.734;10.258;2022-10-23T00:45:29;10.93;;;8.20;;
11731;SDS011;5922;53.734;10.258;2022-10-23T00:47:57;10.50;;;8.67;;
11731;SDS011;5922;53.734;10.258;2022-10-23T00:50:25;12.17;;;8.57;;
11731;SDS011;5922;53.734;10.258;2022-10-23T00:52:53;18.03;;;8.80;;
11731;SDS011;5922;53.734;10.258;2022-10-23T00:55:21;13.13;;;8.90;;
11731;SDS011;5922;53.734;10.258;2022-10-23T00:57:51;11.37;;;8.70;;
11731;SDS011;5922;53.734;10.258;2022-10-23T01:00:19;17.07;;;9.00;;
11731;SDS011;5922;53.734;10.258;2022-10-23T01:02:47;12.97;;;8.23;;
11731;SDS011;5922;53.734;10.258;2022-10-23T01:05:14;12.13;;;9.10;;
11731;SDS011;5922;53.734;10.258;2022-10-23T01:07:44;14.37;;;9.17;;
11731;SDS011;5922;53.734;10.258;2022-10-23T01:10:14;15.90;;;9.40;;
11731;SDS011;5922;53.734;10.258;2022-10-23T01:12:43;9.90;;;8.50;;
11731;SDS011;5922;53.734;10.258;2022-10-23T01:15:14;15.47;;;10.27;;
11731;SDS011;5922;53.734;10.258;2022-10-23T01:17:43;16.70;;;11.67;;
11731;SDS011;5922;53.734;10.258;2022-10-23T01:20:18;22.77;;;11.70;;
11731;SDS011;5922;53.734;10.258;2022-10-23T01:22:53;20.53;;;10.90;;
11731;SDS011;5922;53.734;10.258;2022-10-23T01:25:25;32.73;;;11.53;;
11731;SDS011;5922;53.734;10.258;2022-10-23T01:27:55;23.70;;;11.13;;
11731;SDS011;5922;53.734;10.258;2022-10-23T01:30:25;26.27;;;11.20;;
11731;SDS011;5922;53.734;10.258;2022-10-23T01:32:52;15.50;;;10.80;;
11731;SDS011;5922;53.734;10.258;2022-10-23T01:35:21;28.17;;;11.00;;
11731;SDS011;5922;53.734;10.258;2022-10-23T01:37:50;23.30;;;11.33;;
11731;SDS011;5922;53.734;10.258;2022-10-23T01:40:20;13.63;;;11.10;;
11731;SDS011;5922;53.734;10.258;2022-10-23T01:42:49;22.47;;;10.43;;
11731;SDS011;5922;53.734;10.258;2022-10-23T01:45:20;21.23;;;11.17;;
11731;SDS011;5922;53.734;10.258;2022-10-23T01:47:49;29.67;;;11.23;;
11731;SDS011;5922;53.734;10.258;2022-10-23T01:50:17;36.57;;;11.50;;
11731;SDS011;5922;53.734;10.258;2022-10-23T01:52:44;18.77;;;10.03;;
11731;SDS011;5922;53.734;10.258;2022-10-23T01:55:11;24.80;;;10.67;;
11731;SDS011;5922;53.734;10.258;2022-10-23T01:57:39;35.73;;;10.67;;
11731;SDS011;5922;53.734;10.258;2022-10-23T02:00:08;25.97;;;11.63;;
11731;SDS011;5922;53.734;10.258;2022-10-23T02:02:38;18.27;;;10.13;;
11731;SDS011;5922;53.734;10.258;2022-10-23T02:05:08;28.43;;;11.63;;
11731;SDS011;5922;53.734;10.258;2022-10-23T02:07:36;14.33;;;10.67;;
11731;SDS011;5922;53.734;10.258;2022-10-23T02:10:04;18.83;;;10.73;;
11731;SDS011;5922;53.734;10.258;2022-10-23T02:12:32;21.77;;;10.97;;
11731;SDS011;5922;53.734;10.258;2022-10-23T02:15:02;22.30;;;11.97;;
11731;SDS011;5922;53.734;10.258;2022-10-23T02:17:36;32.33;;;11.77;;
11731;SDS011;5922;53.734;10.258;2022-10-23T02:20:11;24.23;;;12.33;;
11731;SDS011;5922;53.734;10.258;2022-10-23T02:22:45;36.53;;;11.67;;
11731;SDS011;5922;53.734;10.258;2022-10-23T02:25:14;13.50;;;11.43;;
11731;SDS011;5922;53.734;10.258;2022-10-23T02:27:43;29.47;;;11.37;;
11731;SDS011;5922;53.734;10.258;2022-10-23T02:30:12;34.37;;;12.43;;
11731;SDS011;5922;53.734;10.258;2022-10-23T02:32:41;15.93;;;11.67;;
11731;SDS011;5922;53.734;10.258;2022-10-23T02:35:11;45.03;;;12.93;;
11731;SDS011;5922;53.734;10.258;2022-10-23T02:37:39;26.37;;;12.53;;
11731;SDS011;5922;53.734;10.258;2022-10-23T02:40:06;50.60;;;13.40;;
11731;SDS011;5922;53.734;10.258;2022-10-23T02:42:35;44.77;;;14.10;;
11731;SDS011;5922;53.734;10.258;2022-10-23T02:45:06;34.57;;;14.30;;
11731;SDS011;5922;53.734;10.258;2022-10-23T02:47:40;44.47;;;13.90;;
11731;SDS011;5922;53.734;10.258;2022-10-23T02:50:14;20.57;;;13.10;;
11731;SDS011;5922;53.734;10.258;2022-10-23T02:52:48;45.70;;;13.73;;
11731;SDS011;5922;53.734;10.258;2022-10-23T02:55:21;42.17;;;13.73;;
11731;SDS011;5922;53.734;10.258;2022-10-23T02:57:54;37.93;;;13.27;;
11731;SDS011;5922;53.734;10.258;2022-10-23T03:00:22;33.80;;;12.47;;
11731;SDS011;5922;53.734;10.258;2022-10-23T03:02:52;62.80;;;13.03;;
11731;SDS011;5922;53.734;10.258;2022-10-23T03:05:22;37.27;;;13.10;;
11731;SDS011;5922;53.734;10.258;2022-10-23T03:07:51;25.90;;;12.47;;
11731;SDS011;5922;53.734;10.258;2022-10-23T03:10:18;61.53;;;13.77;;
11731;SDS011;5922;53.734;10.258;2022-10-23T03:12:45;43.23;;;12.50;;
11731;SDS011;5922;53.734;10.258;2022-10-23T03:15:13;42.37;;;12.23;;
11731;SDS011;5922;53.734;10.258;2022-10-23T03:17:40;43.20;;;12.57;;
11731;SDS011;5922;53.734;10.258;2022-10-23T03:20:08;48.23;;;12.50;;
11731;SDS011;5922;53.734;10.258;2022-10-23T03:22:37;51.13;;;13.03;;
11731;SDS011;5922;53.734;10.258;2022-10-23T03:25:05;32.17;;;12.47;;
11731;SDS011;5922;53.734;10.258;2022-10-23T03:27:33;45.17;;;12.40;;
11731;SDS011;5922;53.734;10.258;2022-10-23T03:30:00;29.70;;;12.90;;
11731;SDS011;5922;53.734;10.258;2022-10-23T03:32:27;29.90;;;13.23;;
11731;SDS011;5922;53.734;10.258;2022-10-23T03:34:54;39.23;;;13.67;;
11731;SDS011;5922;53.734;10.258;2022-10-23T03:37:22;32.70;;;12.43;;
11731;SDS011;5922;53.734;10.258;2022-10-23T03:39:50;36.40;;;12.93;;
11731;SDS011;5922;53.734;10.258;2022-10-23T03:42:18;44.77;;;13.57;;
11731;SDS011;5922;53.734;10.258;2022-10-23T03:44:45;26.00;;;12.90;;
11731;SDS011;5922;53.734;10.258;2022-10-23T03:47:13;38.27;;;13.60;;
11731;SDS011;5922;53.734;10.258;2022-10-23T03:49:40;81.87;;;13.60;;
11731;SDS011;5922;53.734;10.258;2022-10-23T03:52:07;29.20;;;13.37;;
11731;SDS011;5922;53.734;10.258;2022-10-23T03:54:35;32.77;;;14.33;;
11731;SDS011;5922;53.734;10.258;2022-10-23T03:57:03;37.37;;;13.50;;
11731;SDS011;5922;53.734;10.258;2022-10-23T03:59:31;18.53;;;12.87;;
11731;SDS011;5922;53.734;10.258;2022-10-23T04:01:58;56.77;;;13.83;;
11731;SDS011;5922;53.734;10.258;2022-10-23T04:04:25;43.93;;;13.30;;
11731;SDS011;5922;53.734;10.258;2022-10-23T04:06:52;110.33;;;14.53;;
11731;SDS011;5922;53.734;10.258;2022-10-23T04:09:19;34.10;;;13.50;;
11731;SDS011;5922;53.734;10.258;2022-10-23T04:11:47;60.73;;;13.30;;
11731;SDS011;5922;53.734;10.258;2022-10-23T04:14:15;74.60;;;13.83;;
11731;SDS011;5922;53.734;10.258;2022-10-23T04:16:42;42.17;;;13.20;;
11731;SDS011;5922;53.734;10.258;2022-10-23T04:19:10;48.60;;;13.90;;
11731;SDS011;5922;53.734;10.258;2022-10-23T04:21:37;38.27;;;13.33;;
11731;SDS011;5922;53.734;10.258;2022-10-23T04:24:04;80.57;;;14.40;;
11731;SDS011;5922;53.734;10.258;2022-10-23T04:26:31;37.03;;;13.43;;
11731;SDS011;5922;53.734;10.258;2022-10-23T04:28:59;37.20;;;13.37;;
11731;SDS011;5922;53.734;10.258;2022-10-23T04:31:27;65.37;;;13.43;;
11731;SDS011;5922;53.734;10.258;2022-10-23T04:33:55;47.57;;;13.93;;
11731;SDS011;5922;53.734;10.258;2022-10-23T04:36:22;17.57;;;12.73;;
11731;SDS011;5922;53.734;10.258;2022-10-23T04:38:49;16.13;;;12.53;;
11731;SDS011;5922;53.734;10.258;2022-10-23T04:41:17;15.97;;;12.77;;
11731;SDS011;5922;53.734;10.258;2022-10-23T04:43:44;13.03;;;11.40;;
11731;SDS011;5922;53.734;10.258;2022-10-23T04:46:11;17.63;;;12.03;;
11731;SDS011;5922;53.734;10.258;2022-10-23T04:48:40;13.23;;;11.27;;
11731;SDS011;5922;53.734;10.258;2022-10-23T04:51:08;17.00;;;11.17;;
11731;SDS011;5922;53.734;10.258;2022-10-23T04:53:35;14.00;;;10.93;;
11731;SDS011;5922;53.734;10.258;2022-10-23T04:56:04;12.30;;;11.00;;
11731;SDS011;5922;53.734;10.258;2022-10-23T04:58:31;16.73;;;11.17;;
11731;SDS011;5922;53.734;10.258;2022-10-23T05:00:58;11.67;;;10.00;;
11731;SDS011;5922;53.734;10.258;2022-10-23T05:03:26;13.00;;;9.73;;
11731;SDS011;5922;53.734;10.258;2022-10-23T05:16:22;10.73;;;9.63;;
11731;SDS011;5922;53.734;10.258;2022-10-23T05:18:53;13.37;;;10.17;;
11731;SDS011;5922;53.734;10.258;2022-10-23T05:21:22;12.30;;;9.93;;
11731;SDS011;5922;53.734;10.258;2022-10-23T05:23:51;12.23;;;9.77;;
11731;SDS011;5922;53.734;10.258;2022-10-23T05:26:18;15.60;;;9.40;;
11731;SDS011;5922;53.734;10.258;2022-10-23T05:31:22;9.87;;;8.60;;
11731;SDS011;5922;53.734;10.258;2022-10-23T05:33:50;12.13;;;9.63;;
11731;SDS011;5922;53.734;10.258;2022-10-23T05:36:17;11.27;;;9.23;;
11731;SDS011;5922;53.734;10.258;2022-10-23T05:38:44;10.73;;;9.47;;
11731;SDS011;5922;53.734;10.258;2022-10-23T05:41:12;11.43;;;9.33;;
11731;SDS011;5922;53.734;10.258;2022-10-23T05:43:39;11.57;;;8.97;;
11731;SDS011;5922;53.734;10.258;2022-10-23T05:46:06;10.67;;;8.70;;
11731;SDS011;5922;53.734;10.258;2022-10-23T05:48:35;10.17;;;9.07;;
11731;SDS011;5922;53.734;10.258;2022-10-23T05:51:02;9.57;;;8.57;;
11731;SDS011;5922;53.734;10.258;2022-10-23T05:53:30;9.47;;;8.40;;
11731;SDS011;5922;53.734;10.258;2022-10-23T05:56:02;11.33;;;8.50;;
11731;SDS011;5922;53.734;10.258;2022-10-23T05:58:29;9.70;;;8.57;;
11731;SDS011;5922;53.734;10.258;2022-10-23T06:00:56;11.67;;;7.77;;
11731;SDS011;5922;53.734;10.258;2022-10-23T06:03:24;14.03;;;8.87;;
11731;SDS011;5922;53.734;10.258;2022-10-23T06:05:52;9.27;;;7.83;;
11731;SDS011;5922;53.734;10.258;2022-10-23T06:08:20;10.60;;;7.73;;
11731;SDS011;5922;53.734;10.258;2022-10-23T06:10:48;10.27;;;8.03;;
11731;SDS011;5922;53.734;10.258;2022-10-23T06:13:15;9.30;;;8.20;;
11731;SDS011;5922;53.734;10.258;2022-10-23T06:15:42;12.57;;;8.37;;
11731;SDS011;5922;53.734;10.258;2022-10-23T06:18:10;10.87;;;8.50;;
11731;SDS011;5922;53.734;10.258;2022-10-23T06:20:37;11.90;;;8.37;;
11731;SDS011;5922;53.734;10.258;2022-10-23T06:23:06;12.23;;;8.50;;
11731;SDS011;5922;53.734;10.258;2022-10-23T06:25:33;12.00;;;7.93;;
11731;SDS011;5922;53.734;10.258;2022-10-23T06:28:01;8.83;;;7.93;;
11731;SDS011;5922;53.734;10.258;2022-10-23T06:30:28;10.80;;;8.93;;
11731;SDS011;5922;53.734;10.258;2022-10-23T06:32:55;9.43;;;8.20;;
11731;SDS011;5922;53.734;10.258;2022-10-23T06:35:22;10.07;;;8.37;;
11731;SDS011;5922;53.734;10.258;2022-10-23T06:37:49;11.33;;;8.30;;
11731;SDS011;5922;53.734;10.258;2022-10-23T06:40:18;9.37;;;8.37;;
11731;SDS011;5922;53.734;10.258;2022-10-23T06:42:45;10.17;;;7.83;;
11731;SDS011;5922;53.734;10.258;2022-10-23T06:45:12;10.30;;;8.03;;
11731;SDS011;5922;53.734;10.258;2022-10-23T06:47:40;9.07;;;7.83;;
11731;SDS011;5922;53.734;10.258;2022-10-23T06:50:07;9.93;;;7.87;;
11731;SDS011;5922;53.734;10.258;2022-10-23T06:52:34;8.50;;;7.47;;
11731;SDS011;5922;53.734;10.258;2022-10-23T06:55:02;8.63;;;7.13;;
11731;SDS011;5922;53.734;10.258;2022-10-23T06:57:30;7.80;;;6.80;;
11731;SDS011;5922;53.734;10.258;2022-10-23T06:59:58;10.03;;;6.80;;
11731;SDS011;5922;53.734;10.258;2022-10-23T07:02:25;10.40;;;7.30;;
11731;SDS011;5922;53.734;10.258;2022-10-23T07:04:52;9.60;;;7.00;;
11731;SDS011;5922;53.734;10.258;2022-10-23T07:07:19;7.97;;;7.03;;
11731;SDS011;5922;53.734;10.258;2022-10-23T07:09:46;8.30;;;7.10;;
11731;SDS011;5922;53.734;10.258;2022-10-23T07:12:14;13.27;;;8.00;;
11731;SDS011;5922;53.734;10.258;2022-10-23T07:14:42;9.93;;;7.57;;
11731;SDS011;5922;53.734;10.258;2022-10-23T07:17:10;8.97;;;6.93;;
11731;SDS011;5922;53.734;10.258;2022-10-23T07:19:37;11.03;;;6.90;;
11731;SDS011;5922;53.734;10.258;2022-10-23T07:22:04;8.00;;;7.13;;
11731;SDS011;5922;53.734;10.258;2022-10-23T07:24:31;9.20;;;6.70;;
11731;SDS011;5922;53.734;10.258;2022-10-23T07:27:01;9.47;;;6.70;;
11731;SDS011;5922;53.734;10.258;2022-10-23T07:29:28;8.67;;;6.70;;
11731;SDS011;5922;53.734;10.258;2022-10-23T07:31:57;7.83;;;7.03;;
11731;SDS011;5922;53.734;10.258;2022-10-23T07:34:25;10.77;;;7.00;;
11731;SDS011;5922;53.734;10.258;2022-10-23T07:36:52;9.43;;;6.87;;
11731;SDS011;5922;53.734;10.258;2022-10-23T07:39:21;10.23;;;6.57;;
11731;SDS011;5922;53.734;10.258;2022-10-23T07:41:48;7.77;;;6.90;;
11731;SDS011;5922;53.734;10.258;2022-10-23T07:44:15;7.60;;;6.80;;
11731;SDS011;5922;53.734;10.258;2022-10-23T07:46:42;7.67;;;6.97;;
11731;SDS011;5922;53.734;10.258;2022-10-23T07:49:11;11.10;;;6.50;;
11731;SDS011;5922;53.734;10.258;2022-10-23T07:51:38;12.43;;;6.47;;
11731;SDS011;5922;53.734;10.258;2022-10-23T07:54:06;10.50;;;6.77;;
11731;SDS011;5922;53.734;10.258;2022-10-23T07:56:33;8.23;;;6.50;;
11731;SDS011;5922;53.734;10.258;2022-10-23T07:59:00;6.90;;;6.20;;
11731;SDS011;5922;53.734;10.258;2022-10-23T08:01:28;8.30;;;5.90;;
11731;SDS011;5922;53.734;10.258;2022-10-23T08:03:57;10.13;;;5.90;;
11731;SDS011;5922;53.734;10.258;2022-10-23T08:06:25;7.77;;;5.80;;
11731;SDS011;5922;53.734;10.258;2022-10-23T08:08:52;8.10;;;6.10;;
11731;SDS011;5922;53.734;10.258;2022-10-23T08:11:20;10.77;;;5.73;;
11731;SDS011;5922;53.734;10.258;2022-10-23T08:13:50;9.83;;;5.60;;
11731;SDS011;5922;53.734;10.258;2022-10-23T08:16:17;7.50;;;5.03;;
11731;SDS011;5922;53.734;10.258;2022-10-23T08:18:47;6.27;;;4.70;;
11731;SDS011;5922;53.734;10.258;2022-10-23T08:21:14;6.73;;;4.50;;
11731;SDS011;5922;53.734;10.258;2022-10-23T08:23:43;7.70;;;5.17;;
11731;SDS011;5922;53.734;10.258;2022-10-23T08:26:10;10.33;;;5.17;;
11731;SDS011;5922;53.734;10.258;2022-10-23T08:28:38;10.03;;;4.80;;
11731;SDS011;5922;53.734;10.258;2022-10-23T08:31:06;7.57;;;4.40;;
11731;SDS011;5922;53.734;10.258;2022-10-23T08:33:33;7.87;;;4.50;;
11731;SDS011;5922;53.734;10.258;2022-10-23T08:36:00;10.00;;;5.10;;
11731;SDS011;5922;53.734;10.258;2022-10-23T08:38:28;5.97;;;4.60;;
11731;SDS011;5922;53.734;10.258;2022-10-23T08:40:56;5.37;;;4.30;;
11731;SDS011;5922;53.734;10.258;2022-10-23T08:43:27;7.97;;;4.53;;
11731;SDS011;5922;53.734;10.258;2022-10-23T08:45:57;10.03;;;4.43;;
11731;SDS011;5922;53.734;10.258;2022-10-23T08:48:27;6.10;;;4.57;;
11731;SDS011;5922;53.734;10.258;2022-10-23T08:50:57;7.23;;;4.33;;
11731;SDS011;5922;53.734;10.258;2022-10-23T08:53:26;7.40;;;4.10;;
11731;SDS011;5922;53.734;10.258;2022-10-23T08:55:58;9.70;;;4.60;;
11731;SDS011;5922;53.734;10.258;2022-10-23T08:58:29;6.53;;;4.43;;
11731;SDS011;5922;53.734;10.258;2022-10-23T09:01:00;7.47;;;3.40;;
11731;SDS011;5922;53.734;10.258;2022-10-23T09:03:28;9.07;;;3.50;;
11731;SDS011;5922;53.734;10.258;2022-10-23T09:05:57;5.83;;;3.63;;
11731;SDS011;5922;53.734;10.258;2022-10-23T09:08:33;8.03;;;3.53;;
11731;SDS011;5922;53.734;10.258;2022-10-23T09:11:07;5.33;;;3.50;;
11731;SDS011;5922;53.734;10.258;2022-10-23T09:13:51;5.73;;;3.20;;
11731;SDS011;5922;53.734;10.258;2022-10-23T09:16:21;5.67;;;3.10;;
11731;SDS011;5922;53.734;10.258;2022-10-23T09:18:51;7.73;;;3.70;;
11731;SDS011;5922;53.734;10.258;2022-10-23T09:21:18;7.93;;;3.00;;
11731;SDS011;5922;53.734;10.258;2022-10-23T09:23:47;5.40;;;3.13;;
11731;SDS011;5922;53.734;10.258;2022-10-23T09:26:16;7.50;;;3.47;;
11731;SDS011;5922;53.734;10.258;2022-10-23T09:28:45;6.63;;;2.80;;
11731;SDS011;5922;53.734;10.258;2022-10-23T09:31:13;6.10;;;3.00;;
11731;SDS011;5922;53.734;10.258;2022-10-23T09:33:40;8.63;;;3.30;;
11731;SDS011;5922;53.734;10.258;2022-10-23T09:36:16;9.27;;;3.20;;
11731;SDS011;5922;53.734;10.258;2022-10-23T09:38:46;9.20;;;3.10;;
11731;SDS011;5922;53.734;10.258;2022-10-23T09:41:16;6.30;;;2.57;;
11731;SDS011;5922;53.734;10.258;2022-10-23T09:43:44;5.17;;;3.07;;
11731;SDS011;5922;53.734;10.258;2022-10-23T09:46:11;6.37;;;3.00;;
11731;SDS011;5922;53.734;10.258;2022-10-23T09:48:39;4.33;;;2.93;;
11731;SDS011;5922;53.734;10.258;2022-10-23T09:51:14;7.20;;;3.20;;
11731;SDS011;5922;53.734;10.258;2022-10-23T09:53:46;4.80;;;2.73;;
11731;SDS011;5922;53.734;10.258;2022-10-23T09:56:23;6.73;;;2.50;;
11731;SDS011;5922;53.734;10.258;2022-10-23T09:58:51;3.23;;;2.40;;
11731;SDS011;5922;53.734;10.258;2022-10-23T10:01:23;4.37;;;2.73;;
11731;SDS011;5922;53.734;10.258;2022-10-23T10:03:51;5.97;;;2.60;;
11731;SDS011;5922;53.734;10.258;2022-10-23T10:06:22;5.93;;;2.73;;
11731;SDS011;5922;53.734;10.258;2022-10-23T10:08:50;6.97;;;2.83;;
11731;SDS011;5922;53.734;10.258;2022-10-23T10:11:19;4.90;;;2.50;;
11731;SDS011;5922;53.734;10.258;2022-10-23T10:14:03;7.43;;;3.00;;
11731;SDS011;5922;53.734;10.258;2022-10-23T10:16:35;4.87;;;2.30;;
11731;SDS011;5922;53.734;10.258;2022-10-23T10:19:05;7.20;;;2.53;;
11731;SDS011;5922;53.734;10.258;2022-10-23T10:21:38;9.53;;;3.00;;
11731;SDS011;5922;53.734;10.258;2022-10-23T10:24:08;7.87;;;3.07;;
11731;SDS011;5922;53.734;10.258;2022-10-23T10:26:38;8.80;;;2.90;;
11731;SDS011;5922;53.734;10.258;2022-10-23T10:29:18;8.33;;;2.97;;
11731;SDS011;5922;53.734;10.258;2022-10-23T10:31:56;10.73;;;2.67;;
11731;SDS011;5922;53.734;10.258;2022-10-23T10:34:28;11.27;;;3.97;;
11731;SDS011;5922;53.734;10.258;2022-10-23T10:36:56;5.77;;;2.60;;
11731;SDS011;5922;53.734;10.258;2022-10-23T10:39:30;8.20;;;3.07;;
11731;SDS011;5922;53.734;10.258;2022-10-23T10:42:08;7.00;;;2.80;;
11731;SDS011;5922;53.734;10.258;2022-10-23T10:44:43;9.57;;;3.37;;
11731;SDS011;5922;53.734;10.258;2022-10-23T10:47:12;6.00;;;3.03;;
11731;SDS011;5922;53.734;10.258;2022-10-23T10:49:41;3.97;;;3.00;;
11731;SDS011;5922;53.734;10.258;2022-10-23T10:52:12;5.90;;;3.37;;
11731;SDS011;5922;53.734;10.258;2022-10-23T10:54:46;8.50;;;3.50;;
11731;SDS011;5922;53.734;10.258;2022-10-23T10:57:20;4.10;;;2.80;;
11731;SDS011;5922;53.734;10.258;2022-10-23T10:59:52;6.27;;;2.60;;
11731;SDS011;5922;53.734;10.258;2022-10-23T11:02:24;5.47;;;3.10;;
11731;SDS011;5922;53.734;10.258;2022-10-23T11:04:54;9.17;;;3.00;;
11731;SDS011;5922;53.734;10.258;2022-10-23T11:07:24;7.47;;;2.97;;
11731;SDS011;5922;53.734;10.258;2022-10-23T11:09:52;7.63;;;2.57;;
11731;SDS011;5922;53.734;10.258;2022-10-23T11:12:20;6.47;;;2.83;;
11731;SDS011;5922;53.734;10.258;2022-10-23T11:14:49;7.03;;;2.63;;
11731;SDS011;5922;53.734;10.258;2022-10-23T11:17:18;4.37;;;2.60;;
11731;SDS011;5922;53.734;10.258;2022-10-23T11:19:48;7.47;;;2.83;;
11731;SDS011;5922;53.734;10.258;2022-10-23T11:22:22;6.57;;;2.47;;
11731;SDS011;5922;53.734;10.258;2022-10-23T11:24:57;6.63;;;2.63;;
11731;SDS011;5922;53.734;10.258;2022-10-23T11:27:31;6.30;;;2.47;;
11731;SDS011;5922;53.734;10.258;2022-10-23T11:30:03;6.00;;;2.10;;
11731;SDS011;5922;53.734;10.258;2022-10-23T11:32:41;7.37;;;2.83;;
11731;SDS011;5922;53.734;10.258;2022-10-23T11:37:58;9.53;;;2.90;;
11731;SDS011;5922;53.734;10.258;2022-10-23T11:40:26;5.00;;;2.60;;
11731;SDS011;5922;53.734;10.258;2022-10-23T11:42:53;9.73;;;2.50;;
11731;SDS011;5922;53.734;10.258;2022-10-23T11:45:27;6.73;;;2.57;;
11731;SDS011;5922;53.734;10.258;2022-10-23T11:47:57;6.80;;;2.33;;
11731;SDS011;5922;53.734;10.258;2022-10-23T11:50:26;4.13;;;2.60;;
11731;SDS011;5922;53.734;10.258;2022-10-23T11:53:04;8.13;;;3.10;;
11731;SDS011;5922;53.734;10.258;2022-10-23T11:55:35;5.37;;;2.70;;
11731;SDS011;5922;53.734;10.258;2022-10-23T11:58:10;4.47;;;2.43;;
11731;SDS011;5922;53.734;10.258;2022-10-23T12:00:48;5.30;;;2.57;;
11731;SDS011;5922;53.734;10.258;2022-10-23T12:03:20;7.77;;;2.83;;
11731;SDS011;5922;53.734;10.258;2022-10-23T12:05:54;7.57;;;3.03;;
11731;SDS011;5922;53.734;10.258;2022-10-23T12:08:24;6.43;;;2.83;;
11731;SDS011;5922;53.734;10.258;2022-10-23T12:10:52;6.63;;;2.40;;
11731;SDS011;5922;53.734;10.258;2022-10-23T12:13:28;7.97;;;2.70;;
11731;SDS011;5922;53.734;10.258;2022-10-23T12:15:56;7.10;;;2.77;;
11731;SDS011;5922;53.734;10.258;2022-10-23T12:18:24;5.83;;;2.87;;
11731;SDS011;5922;53.734;10.258;2022-10-23T12:20:53;7.30;;;2.73;;
11731;SDS011;5922;53.734;10.258;2022-10-23T12:26:09;7.63;;;2.70;;
11731;SDS011;5922;53.734;10.258;2022-10-23T12:28:39;6.17;;;2.40;;
11731;SDS011;5922;53.734;10.258;2022-10-23T12:31:14;7.37;;;2.20;;
11731;SDS011;5922;53.734;10.258;2022-10-23T12:33:44;7.63;;;2.77;;
11731;SDS011;5922;53.734;10.258;2022-10-23T12:36:27;5.43;;;2.47;;
11731;SDS011;5922;53.734;10.258;2022-10-23T12:38:57;4.87;;;2.30;;
11731;SDS011;5922;53.734;10.258;2022-10-23T12:41:24;3.80;;;2.30;;
11731;SDS011;5922;53.734;10.258;2022-10-23T12:43:52;7.03;;;2.57;;
11731;SDS011;5922;53.734;10.258;2022-10-23T12:46:30;9.83;;;2.63;;
11731;SDS011;5922;53.734;10.258;2022-10-23T12:49:00;4.57;;;2.40;;
11731;SDS011;5922;53.734;10.258;2022-10-23T12:51:29;5.60;;;2.77;;
11731;SDS011;5922;53.734;10.258;2022-10-23T12:53:57;5.73;;;2.33;;
11731;SDS011;5922;53.734;10.258;2022-10-23T12:56:24;5.07;;;2.27;;
11731;SDS011;5922;53.734;10.258;2022-10-23T12:58:53;4.57;;;2.30;;
11731;SDS011;5922;53.734;10.258;2022-10-23T13:01:22;4.83;;;2.50;;
11731;SDS011;5922;53.734;10.258;2022-10-23T13:03:49;6.33;;;2.40;;
11731;SDS011;5922;53.734;10.258;2022-10-23T13:06:18;4.33;;;2.30;;
11731;SDS011;5922;53.734;10.258;2022-10-23T13:08:46;6.47;;;2.57;;
11731;SDS011;5922;53.734;10.258;2022-10-23T13:11:15;4.50;;;2.47;;
11731;SDS011;5922;53.734;10.258;2022-10-23T13:13:44;6.83;;;2.63;;
11731;SDS011;5922;53.734;10.258;2022-10-23T13:16:13;8.50;;;2.50;;
11731;SDS011;5922;53.734;10.258;2022-10-23T13:18:41;4.23;;;2.40;;
11731;SDS011;5922;53.734;10.258;2022-10-23T13:21:13;5.93;;;2.60;;
11731;SDS011;5922;53.734;10.258;2022-10-23T13:23:42;5.00;;;2.73;;
11731;SDS011;5922;53.734;10.258;2022-10-23T13:26:29;7.30;;;2.50;;
11731;SDS011;5922;53.734;10.258;2022-10-23T13:28:57;6.63;;;2.57;;
11731;SDS011;5922;53.734;10.258;2022-10-23T13:31:31;8.83;;;2.80;;
11731;SDS011;5922;53.734;10.258;2022-10-23T13:34:03;4.50;;;2.50;;
11731;SDS011;5922;53.734;10.258;2022-10-23T13:36:33;6.90;;;2.43;;
11731;SDS011;5922;53.734;10.258;2022-10-23T13:39:03;5.30;;;2.60;;
11731;SDS011;5922;53.734;10.258;2022-10-23T13:41:33;5.03;;;2.73;;
11731;SDS011;5922;53.734;10.258;2022-10-23T13:44:01;5.23;;;2.50;;
11731;SDS011;5922;53.734;10.258;2022-10-23T13:46:28;7.73;;;3.03;;
11731;SDS011;5922;53.734;10.258;2022-10-23T13:48:56;6.23;;;2.40;;
11731;SDS011;5922;53.734;10.258;2022-10-23T13:51:23;4.63;;;2.60;;
11731;SDS011;5922;53.734;10.258;2022-10-23T13:53:51;5.07;;;2.50;;
11731;SDS011;5922;53.734;10.258;2022-10-23T13:56:21;4.03;;;2.57;;
11731;SDS011;5922;53.734;10.258;2022-10-23T13:58:48;7.17;;;2.60;;
11731;SDS011;5922;53.734;10.258;2022-10-23T14:01:18;8.90;;;2.47;;
11731;SDS011;5922;53.734;10.258;2022-10-23T14:03:46;3.87;;;2.27;;
11731;SDS011;5922;53.734;10.258;2022-10-23T14:06:14;6.20;;;2.40;;
11731;SDS011;5922;53.734;10.258;2022-10-23T14:08:41;5.87;;;2.47;;
11731;SDS011;5922;53.734;10.258;2022-10-23T14:11:09;7.57;;;2.40;;
11731;SDS011;5922;53.734;10.258;2022-10-23T14:13:38;6.67;;;2.50;;
11731;SDS011;5922;53.734;10.258;2022-10-23T14:16:05;4.93;;;2.80;;
11731;SDS011;5922;53.734;10.258;2022-10-23T14:18:33;4.67;;;2.70;;
11731;SDS011;5922;53.734;10.258;2022-10-23T14:21:00;5.63;;;2.63;;
11731;SDS011;5922;53.734;10.258;2022-10-23T14:23:27;4.33;;;2.43;;
11731;SDS011;5922;53.734;10.258;2022-10-23T14:25:59;5.07;;;2.37;;
11731;SDS011;5922;53.734;10.258;2022-10-23T14:28:27;6.03;;;2.60;;
11731;SDS011;5922;53.734;10.258;2022-10-23T14:30:56;7.97;;;3.10;;
11731;SDS011;5922;53.734;10.258;2022-10-23T14:33:23;5.60;;;2.50;;
11731;SDS011;5922;53.734;10.258;2022-10-23T14:35:50;4.67;;;2.53;;
11731;SDS011;5922;53.734;10.258;2022-10-23T14:38:18;5.33;;;2.40;;
11731;SDS011;5922;53.734;10.258;2022-10-23T14:40:45;4.07;;;2.60;;
11731;SDS011;5922;53.734;10.258;2022-10-23T14:43:12;4.73;;;2.23;;
11731;SDS011;5922;53.734;10.258;2022-10-23T14:45:39;4.33;;;2.57;;
11731;SDS011;5922;53.734;10.258;2022-10-23T14:48:08;5.17;;;2.40;;
11731;SDS011;5922;53.734;10.258;2022-10-23T14:50:36;7.00;;;2.90;;
11731;SDS011;5922;53.734;10.258;2022-10-23T14:53:04;8.37;;;2.80;;
11731;SDS011;5922;53.734;10.258;2022-10-23T14:55:31;10.70;;;2.90;;
11731;SDS011;5922;53.734;10.258;2022-10-23T14:57:58;5.77;;;3.17;;
11731;SDS011;5922;53.734;10.258;2022-10-23T15:00:25;5.90;;;2.60;;
11731;SDS011;5922;53.734;10.258;2022-10-23T15:02:52;6.73;;;2.97;;
11731;SDS011;5922;53.734;10.258;2022-10-23T15:05:21;7.03;;;3.10;;
11731;SDS011;5922;53.734;10.258;2022-10-23T15:07:48;8.97;;;2.80;;